sensor_id;sensor_type;location;lat;lon;timestamp;pressure;altitude;pressure_sealevel;temperature;humidity
56876;BME280;42622;49.972;8.452;2023-04-23T00:01:06;99966.41;;;11.00;100.00
56876;BME280;42622;49.972;8.452;2023-04-23T00:03:35;99959.44;;;10.99;100.00
56876;BME280;42622;49.972;8.452;2023-04-23T00:06:06;99963.91;;;10.99;100.00
56876;BME280;42622;49.972;8.452;2023-04-23T00:08:38;99964.72;;;10.99;100.00
56876;BME280;42622;49.972;8.452;2023-04-23T00:11:05;99969.19;;;10.99;100.00
56876;BME280;42622;49.972;8.452;2023-04-23T00:13:32;99967.47;;;10.98;100.00
56876;BME280;42622;49.972;8.452;2023-04-23T00:15:59;99966.63;;;10.97;100.00
56876;BME280;42622;49.972;8.452;2023-04-23T00:18:25;99970.25;;;10.96;100.00
56876;BME280;42622;49.972;8.452;2023-04-23T00:20:50;99972.78;;;10.98;100.00
56876;BME280;42622;49.972;8.452;2023-04-23T00:23:16;99977.22;;;10.97;100.00
56876;BME280;42622;49.972;8.452;2023-04-23T00:25:42;99972.91;;;10.96;100.00
56876;BME280;42622;49.972;8.452;2023-04-23T00:28:08;99972.91;;;10.96;100.00
56876;BME280;42622;49.972;8.452;2023-04-23T00:30:34;99972.91;;;10.96;100.00
56876;BME280;42622;49.972;8.452;2023-04-23T00:32:59;99969.41;;;10.96;100.00
56876;BME280;42622;49.972;8.452;2023-04-23T00:35:25;99973.88;;;10.95;100.00
56876;BME280;42622;49.972;8.452;2023-04-23T00:37:51;99982.75;;;10.94;100.00
56876;BME280;42622;49.972;8.452;2023-04-23T00:40:17;99981.06;;;10.93;100.00
56876;BME280;42622;49.972;8.452;2023-04-23T00:42:43;99981.06;;;10.93;100.00
56876;BME280;42622;49.972;8.452;2023-04-23T00:45:10;99975.03;;;10.91;100.00
56876;BME280;42622;49.972;8.452;2023-04-23T00:47:37;99971.56;;;10.91;100.00
56876;BME280;42622;49.972;8.452;2023-04-23T00:50:06;99980.31;;;10.91;100.00
56876;BME280;42622;49.972;8.452;2023-04-23T00:52:32;99976.84;;;10.91;100.00
56876;BME280;42622;49.972;8.452;2023-04-23T00:54:59;99972.63;;;10.88;100.00
56876;BME280;42622;49.972;8.452;2023-04-23T00:57:25;99971.78;;;10.88;100.00
56876;BME280;42622;49.972;8.452;2023-04-23T00:59:52;99963.00;;;10.87;100.00
56876;BME280;42622;49.972;8.452;2023-04-23T01:02:20;99967.47;;;10.87;100.00
56876;BME280;42622;49.972;8.452;2023-04-23T01:04:47;99971.09;;;10.86;100.00
56876;BME280;42622;49.972;8.452;2023-04-23T01:07:15;99972.00;;;10.85;100.00
56876;BME280;42622;49.972;8.452;2023-04-23T01:09:42;99970.34;;;10.84;100.00
56876;BME280;42622;49.972;8.452;2023-04-23T01:12:09;99970.34;;;10.84;100.00
56876;BME280;42622;49.972;8.452;2023-04-23T01:14:37;99974.78;;;10.83;100.00
56876;BME280;42622;49.972;8.452;2023-04-23T01:17:04;99981.03;;;10.82;100.00
56876;BME280;42622;49.972;8.452;2023-04-23T01:19:30;99973.13;;;10.82;100.00
56876;BME280;42622;49.972;8.452;2023-04-23T01:21:56;99969.72;;;10.80;100.00
56876;BME280;42622;49.972;8.452;2023-04-23T01:24:26;99975.03;;;10.80;100.00
56876;BME280;42622;49.972;8.452;2023-04-23T01:26:53;99973.34;;;10.79;100.00
56876;BME280;42622;49.972;8.452;2023-04-23T01:29:20;99969.97;;;10.77;100.00
56876;BME280;42622;49.972;8.452;2023-04-23T01:31:47;99966.47;;;10.76;100.00
56876;BME280;42622;49.972;8.452;2023-04-23T01:34:14;99976.97;;;10.78;100.00
56876;BME280;42622;49.972;8.452;2023-04-23T01:36:42;99978.84;;;10.76;100.00
56876;BME280;42622;49.972;8.452;2023-04-23T01:39:08;99978.84;;;10.76;100.00
56876;BME280;42622;49.972;8.452;2023-04-23T01:41:35;99982.47;;;10.75;100.00
56876;BME280;42622;49.972;8.452;2023-04-23T01:44:02;99993.97;;;10.74;100.00
56876;BME280;42622;49.972;8.452;2023-04-23T01:46:29;100000.13;;;10.74;100.00
56876;BME280;42622;49.972;8.452;2023-04-23T01:48:55;99993.28;;;10.72;100.00
56876;BME280;42622;49.972;8.452;2023-04-23T01:51:21;99992.31;;;10.73;100.00
56876;BME280;42622;49.972;8.452;2023-04-23T01:53:49;99998.56;;;10.72;100.00
56876;BME280;42622;49.972;8.452;2023-04-23T01:56:19;99986.31;;;10.71;100.00
56876;BME280;42622;49.972;8.452;2023-04-23T01:58:46;99995.09;;;10.71;100.00
56876;BME280;42622;49.972;8.452;2023-04-23T02:01:12;99989.88;;;10.70;100.00
56876;BME280;42622;49.972;8.452;2023-04-23T02:03:38;100003.00;;;10.71;100.00
56876;BME280;42622;49.972;8.452;2023-04-23T02:06:04;99995.19;;;10.70;100.00
56876;BME280;42622;49.972;8.452;2023-04-23T02:08:30;99990.84;;;10.69;100.00
56876;BME280;42622;49.972;8.452;2023-04-23T02:10:55;99987.38;;;10.68;100.00
56876;BME280;42622;49.972;8.452;2023-04-23T02:13:22;100001.56;;;10.67;100.00
56876;BME280;42622;49.972;8.452;2023-04-23T02:15:48;100000.69;;;10.67;100.00
56876;BME280;42622;49.972;8.452;2023-04-23T02:18:13;100000.69;;;10.67;100.00
56876;BME280;42622;49.972;8.452;2023-04-23T02:20:39;100012.97;;;10.68;100.00
56876;BME280;42622;49.972;8.452;2023-04-23T02:23:09;100006.84;;;10.67;100.00
56876;BME280;42622;49.972;8.452;2023-04-23T02:25:36;100008.63;;;10.67;100.00
56876;BME280;42622;49.972;8.452;2023-04-23T02:28:04;99998.03;;;10.67;100.00
56876;BME280;42622;49.972;8.452;2023-04-23T02:30:33;100013.91;;;10.67;100.00
56876;BME280;42622;49.972;8.452;2023-04-23T02:32:59;100005.97;;;10.67;100.00
56876;BME280;42622;49.972;8.452;2023-04-23T02:35:25;100004.31;;;10.66;100.00
56876;BME280;42622;49.972;8.452;2023-04-23T02:37:53;100007.91;;;10.65;100.00
56876;BME280;42622;49.972;8.452;2023-04-23T02:40:19;100010.56;;;10.65;100.00
56876;BME280;42622;49.972;8.452;2023-04-23T02:42:45;100012.34;;;10.64;100.00
56876;BME280;42622;49.972;8.452;2023-04-23T02:45:11;100015.00;;;10.64;100.00
56876;BME280;42622;49.972;8.452;2023-04-23T02:47:37;100015.09;;;10.63;100.00
56876;BME280;42622;49.972;8.452;2023-04-23T02:50:05;100018.72;;;10.62;100.00
56876;BME280;42622;49.972;8.452;2023-04-23T02:52:32;100013.41;;;10.62;100.00
56876;BME280;42622;49.972;8.452;2023-04-23T02:54:59;100020.59;;;10.60;100.00
56876;BME280;42622;49.972;8.452;2023-04-23T02:57:27;100025.91;;;10.60;100.00
56876;BME280;42622;49.972;8.452;2023-04-23T02:59:52;100029.50;;;10.59;100.00
56876;BME280;42622;49.972;8.452;2023-04-23T03:02:19;100012.81;;;10.58;100.00
56876;BME280;42622;49.972;8.452;2023-04-23T03:04:45;100023.38;;;10.58;100.00
56876;BME280;42622;49.972;8.452;2023-04-23T03:07:11;100016.41;;;10.57;100.00
56876;BME280;42622;49.972;8.452;2023-04-23T03:09:38;100012.94;;;10.57;100.00
56876;BME280;42622;49.972;8.452;2023-04-23T03:12:04;100025.28;;;10.56;100.00
56876;BME280;42622;49.972;8.452;2023-04-23T03:14:30;100012.19;;;10.55;100.00
56876;BME280;42622;49.972;8.452;2023-04-23T03:16:55;100022.75;;;10.55;100.00
56876;BME280;42622;49.972;8.452;2023-04-23T03:19:21;100023.72;;;10.53;100.00
56876;BME280;42622;49.972;8.452;2023-04-23T03:21:47;100024.66;;;10.52;100.00
56876;BME280;42622;49.972;8.452;2023-04-23T03:24:15;100030.91;;;10.51;100.00
56876;BME280;42622;49.972;8.452;2023-04-23T03:26:41;100025.63;;;10.51;100.00
56876;BME280;42622;49.972;8.452;2023-04-23T03:29:07;100028.28;;;10.51;100.00
56876;BME280;42622;49.972;8.452;2023-04-23T03:31:33;100028.41;;;10.50;100.00
56876;BME280;42622;49.972;8.452;2023-04-23T03:33:58;100013.47;;;10.49;100.00
56876;BME280;42622;49.972;8.452;2023-04-23T03:36:24;100025.75;;;10.50;100.00
56876;BME280;42622;49.972;8.452;2023-04-23T03:38:50;100030.19;;;10.49;100.00
56876;BME280;42622;49.972;8.452;2023-04-23T03:41:15;100025.00;;;10.48;100.00
56876;BME280;42622;49.972;8.452;2023-04-23T03:43:41;100019.84;;;10.46;100.00
56876;BME280;42622;49.972;8.452;2023-04-23T03:46:07;100018.06;;;10.47;100.00
56876;BME280;42622;49.972;8.452;2023-04-23T03:48:32;100025.13;;;10.46;100.00
56876;BME280;42622;49.972;8.452;2023-04-23T03:50:58;100019.03;;;10.46;100.00
56876;BME280;42622;49.972;8.452;2023-04-23T03:53:24;100018.16;;;10.45;100.00
56876;BME280;42622;49.972;8.452;2023-04-23T03:55:49;100008.44;;;10.46;100.00
56876;BME280;42622;49.972;8.452;2023-04-23T03:58:15;100015.50;;;10.45;100.00
56876;BME280;42622;49.972;8.452;2023-04-23T04:00:41;100016.47;;;10.44;100.00
56876;BME280;42622;49.972;8.452;2023-04-23T04:03:07;100014.66;;;10.45;100.00
56876;BME280;42622;49.972;8.452;2023-04-23T04:05:34;100012.16;;;10.43;100.00
56876;BME280;42622;49.972;8.452;2023-04-23T04:08:00;100023.56;;;10.44;100.00
56876;BME280;42622;49.972;8.452;2023-04-23T04:10:26;100014.88;;;10.42;100.00
56876;BME280;42622;49.972;8.452;2023-04-23T04:12:52;100020.06;;;10.43;100.00
56876;BME280;42622;49.972;8.452;2023-04-23T04:15:19;100026.28;;;10.42;100.00
56876;BME280;42622;49.972;8.452;2023-04-23T04:17:46;100026.28;;;10.42;100.00
56876;BME280;42622;49.972;8.452;2023-04-23T04:20:12;100021.00;;;10.42;100.00
56876;BME280;42622;49.972;8.452;2023-04-23T04:22:38;100026.28;;;10.42;100.00
56876;BME280;42622;49.972;8.452;2023-04-23T04:25:04;100028.09;;;10.42;100.00
56876;BME280;42622;49.972;8.452;2023-04-23T04:27:31;100032.53;;;10.41;100.00
56876;BME280;42622;49.972;8.452;2023-04-23T04:30:01;100033.38;;;10.42;100.00
56876;BME280;42622;49.972;8.452;2023-04-23T04:32:27;100030.88;;;10.40;100.00
56876;BME280;42622;49.972;8.452;2023-04-23T04:34:53;100027.25;;;10.41;100.00
56876;BME280;42622;49.972;8.452;2023-04-23T04:37:19;100032.53;;;10.41;100.00
56876;BME280;42622;49.972;8.452;2023-04-23T04:39:47;100032.53;;;10.41;100.00
56876;BME280;42622;49.972;8.452;2023-04-23T04:42:13;100038.78;;;10.40;100.00
56876;BME280;42622;49.972;8.452;2023-04-23T04:44:40;100037.84;;;10.41;100.00
56876;BME280;42622;49.972;8.452;2023-04-23T04:47:06;100041.44;;;10.40;100.00
56876;BME280;42622;49.972;8.452;2023-04-23T04:49:32;100037.84;;;10.41;100.00
56876;BME280;42622;49.972;8.452;2023-04-23T04:51:58;100030.03;;;10.40;100.00
56876;BME280;42622;49.972;8.452;2023-04-23T04:54:25;100029.19;;;10.39;100.00
56876;BME280;42622;49.972;8.452;2023-04-23T04:56:50;100022.19;;;10.38;100.00
56876;BME280;42622;49.972;8.452;2023-04-23T04:59:16;100032.66;;;10.40;100.00
56876;BME280;42622;49.972;8.452;2023-04-23T05:01:43;100028.22;;;10.40;100.00
56876;BME280;42622;49.972;8.452;2023-04-23T05:04:08;100036.03;;;10.42;100.00
56876;BME280;42622;49.972;8.452;2023-04-23T05:06:34;100034.97;;;10.44;100.00
56876;BME280;42622;49.972;8.452;2023-04-23T05:09:00;100031.25;;;10.47;100.00
56876;BME280;42622;49.972;8.452;2023-04-23T05:11:26;100033.56;;;10.51;100.00
56876;BME280;42622;49.972;8.452;2023-04-23T05:13:51;100031.44;;;10.57;100.00
56876;BME280;42622;49.972;8.452;2023-04-23T05:16:18;100036.47;;;10.60;100.00
56876;BME280;42622;49.972;8.452;2023-04-23T05:18:43;100043.47;;;10.61;100.00
56876;BME280;42622;49.972;8.452;2023-04-23T05:21:09;100043.47;;;10.61;100.00
56876;BME280;42622;49.972;8.452;2023-04-23T05:23:35;100039.84;;;10.62;100.00
56876;BME280;42622;49.972;8.452;2023-04-23T05:26:02;100046.81;;;10.63;100.00
56876;BME280;42622;49.972;8.452;2023-04-23T05:28:31;100044.09;;;10.64;100.00
56876;BME280;42622;49.972;8.452;2023-04-23T05:30:57;100047.44;;;10.66;100.00
56876;BME280;42622;49.972;8.452;2023-04-23T05:33:25;100048.28;;;10.67;100.00
56876;BME280;42622;49.972;8.452;2023-04-23T05:35:51;100044.69;;;10.68;100.00
56876;BME280;42622;49.972;8.452;2023-04-23T05:38:16;100034.00;;;10.69;100.00
56876;BME280;42622;49.972;8.452;2023-04-23T05:40:42;100044.69;;;10.68;100.00
56876;BME280;42622;49.972;8.452;2023-04-23T05:43:08;100040.03;;;10.71;100.00
56876;BME280;42622;49.972;8.452;2023-04-23T05:45:34;100045.91;;;10.75;100.00
56876;BME280;42622;49.972;8.452;2023-04-23T05:47:59;100047.38;;;10.79;100.00
56876;BME280;42622;49.972;8.452;2023-04-23T05:50:25;100049.56;;;10.85;100.00
56876;BME280;42622;49.972;8.452;2023-04-23T05:52:51;100050.19;;;10.89;100.00
56876;BME280;42622;49.972;8.452;2023-04-23T05:55:16;100052.69;;;10.90;100.00
56876;BME280;42622;49.972;8.452;2023-04-23T05:57:43;100055.84;;;10.95;100.00
56876;BME280;42622;49.972;8.452;2023-04-23T06:00:10;100054.38;;;10.91;100.00
56876;BME280;42622;49.972;8.452;2023-04-23T06:02:37;100054.72;;;10.87;100.00
56876;BME280;42622;49.972;8.452;2023-04-23T06:05:06;100054.59;;;10.88;100.00
56876;BME280;42622;49.972;8.452;2023-04-23T06:07:33;100059.34;;;10.96;100.00
56876;BME280;42622;49.972;8.452;2023-04-23T06:09:59;100062.84;;;11.08;100.00
56876;BME280;42622;49.972;8.452;2023-04-23T06:12:25;100055.69;;;11.21;100.00
56876;BME280;42622;49.972;8.452;2023-04-23T06:14:52;100052.81;;;11.35;100.00
56876;BME280;42622;49.972;8.452;2023-04-23T06:17:18;100049.44;;;11.44;100.00
56876;BME280;42622;49.972;8.452;2023-04-23T06:19:43;100049.94;;;11.61;100.00
56876;BME280;42622;49.972;8.452;2023-04-23T06:22:09;100053.91;;;11.78;100.00
56876;BME280;42622;49.972;8.452;2023-04-23T06:24:35;100053.56;;;12.16;100.00
56876;BME280;42622;49.972;8.452;2023-04-23T06:27:01;100056.44;;;13.09;100.00
56876;BME280;42622;49.972;8.452;2023-04-23T06:29:28;100056.66;;;14.00;100.00
56876;BME280;42622;49.972;8.452;2023-04-23T06:31:55;100059.91;;;14.63;100.00
56876;BME280;42622;49.972;8.452;2023-04-23T06:34:22;100059.91;;;15.02;100.00
56876;BME280;42622;49.972;8.452;2023-04-23T06:36:49;100049.75;;;15.25;100.00
56876;BME280;42622;49.972;8.452;2023-04-23T06:39:16;100053.69;;;15.30;100.00
56876;BME280;42622;49.972;8.452;2023-04-23T06:41:42;100061.91;;;15.47;100.00
56876;BME280;42622;49.972;8.452;2023-04-23T06:44:08;100046.06;;;15.55;100.00
56876;BME280;42622;49.972;8.452;2023-04-23T06:46:34;100051.47;;;15.63;100.00
56876;BME280;42622;49.972;8.452;2023-04-23T06:49:00;100046.28;;;15.71;100.00
56876;BME280;42622;49.972;8.452;2023-04-23T06:51:26;100043.19;;;15.76;100.00
56876;BME280;42622;49.972;8.452;2023-04-23T06:53:53;100034.19;;;15.87;100.00
56876;BME280;42622;49.972;8.452;2023-04-23T06:56:19;100027.97;;;15.86;100.00
56876;BME280;42622;49.972;8.452;2023-04-23T06:58:46;100023.09;;;16.09;100.00
56876;BME280;42622;49.972;8.452;2023-04-23T07:01:12;100043.53;;;16.18;100.00
56876;BME280;42622;49.972;8.452;2023-04-23T07:03:38;100036.22;;;16.20;100.00
56876;BME280;42622;49.972;8.452;2023-04-23T07:06:04;100017.28;;;15.96;100.00
56876;BME280;42622;49.972;8.452;2023-04-23T07:08:30;100007.41;;;15.32;100.00
56876;BME280;42622;49.972;8.452;2023-04-23T07:10:56;100012.28;;;14.70;100.00
56876;BME280;42622;49.972;8.452;2023-04-23T07:13:22;100016.97;;;14.18;100.00
56876;BME280;42622;49.972;8.452;2023-04-23T07:15:49;100001.41;;;13.94;100.00
56876;BME280;42622;49.972;8.452;2023-04-23T07:18:14;100012.94;;;13.73;100.00
56876;BME280;42622;49.972;8.452;2023-04-23T07:20:40;100019.69;;;13.47;100.00
56876;BME280;42622;49.972;8.452;2023-04-23T07:23:06;100025.13;;;13.24;100.00
56876;BME280;42622;49.972;8.452;2023-04-23T07:25:32;100024.53;;;13.00;100.00
56876;BME280;42622;49.972;8.452;2023-04-23T07:27:58;100011.88;;;13.24;100.00
56876;BME280;42622;49.972;8.452;2023-04-23T07:30:26;100025.13;;;13.76;100.00
56876;BME280;42622;49.972;8.452;2023-04-23T07:32:54;100013.34;;;14.19;100.00
56876;BME280;42622;49.972;8.452;2023-04-23T07:35:20;100012.50;;;14.18;100.00
56876;BME280;42622;49.972;8.452;2023-04-23T07:37:46;100009.53;;;14.11;100.00
56876;BME280;42622;49.972;8.452;2023-04-23T07:40:12;100010.13;;;14.34;100.00
56876;BME280;42622;49.972;8.452;2023-04-23T07:42:38;100010.88;;;14.95;100.00
56876;BME280;42622;49.972;8.452;2023-04-23T07:45:05;100009.53;;;15.65;100.00
56876;BME280;42622;49.972;8.452;2023-04-23T07:47:30;100016.69;;;16.02;100.00
56876;BME280;42622;49.972;8.452;2023-04-23T07:49:56;100013.22;;;16.19;100.00
56876;BME280;42622;49.972;8.452;2023-04-23T07:52:22;100007.00;;;15.73;100.00
56876;BME280;42622;49.972;8.452;2023-04-23T07:54:47;100018.00;;;15.51;100.00
56876;BME280;42622;49.972;8.452;2023-04-23T07:57:13;100017.25;;;15.31;100.00
56876;BME280;42622;49.972;8.452;2023-04-23T07:59:39;100003.56;;;14.97;100.00
56876;BME280;42622;49.972;8.452;2023-04-23T08:02:05;100000.38;;;14.64;100.00
56876;BME280;42622;49.972;8.452;2023-04-23T08:04:31;100001.47;;;14.42;100.00
56876;BME280;42622;49.972;8.452;2023-04-23T08:06:56;100009.63;;;14.50;100.00
56876;BME280;42622;49.972;8.452;2023-04-23T08:09:23;100002.19;;;14.54;100.00
56876;BME280;42622;49.972;8.452;2023-04-23T08:11:49;99999.09;;;14.49;100.00
56876;BME280;42622;49.972;8.452;2023-04-23T08:14:15;100005.84;;;14.53;100.00
56876;BME280;42622;49.972;8.452;2023-04-23T08:16:42;99993.53;;;15.38;100.00
56876;BME280;42622;49.972;8.452;2023-04-23T08:19:08;99991.41;;;16.06;100.00
56876;BME280;42622;49.972;8.452;2023-04-23T08:21:33;99991.44;;;16.42;100.00
56876;BME280;42622;49.972;8.452;2023-04-23T08:23:59;99987.59;;;16.62;100.00
56876;BME280;42622;49.972;8.452;2023-04-23T08:26:27;99976.22;;;16.96;100.00
56876;BME280;42622;49.972;8.452;2023-04-23T08:28:53;99980.03;;;17.19;100.00
56876;BME280;42622;49.972;8.452;2023-04-23T08:31:18;99974.56;;;17.55;100.00
56876;BME280;42622;49.972;8.452;2023-04-23T08:33:45;99973.88;;;17.87;100.00
56876;BME280;42622;49.972;8.452;2023-04-23T08:36:10;99972.91;;;17.62;100.00
56876;BME280;42622;49.972;8.452;2023-04-23T08:38:36;99965.59;;;17.04;100.00
56876;BME280;42622;49.972;8.452;2023-04-23T08:41:05;99967.88;;;16.99;100.00
56876;BME280;42622;49.972;8.452;2023-04-23T08:43:47;99963.59;;;17.06;100.00
56876;BME280;42622;49.972;8.452;2023-04-23T08:46:22;99964.47;;;16.89;100.00
56876;BME280;42622;49.972;8.452;2023-04-23T08:48:52;99969.53;;;17.18;100.00
56876;BME280;42622;49.972;8.452;2023-04-23T08:51:24;99974.50;;;17.39;100.00
56876;BME280;42622;49.972;8.452;2023-04-23T08:53:57;99973.59;;;17.56;100.00
56876;BME280;42622;49.972;8.452;2023-04-23T08:56:27;99973.13;;;17.35;100.00
56876;BME280;42622;49.972;8.452;2023-04-23T08:58:53;99969.59;;;17.68;100.00
56876;BME280;42622;49.972;8.452;2023-04-23T09:01:19;99964.69;;;17.82;100.00
56876;BME280;42622;49.972;8.452;2023-04-23T09:03:47;99966.50;;;17.47;100.00
56876;BME280;42622;49.972;8.452;2023-04-23T09:06:13;99961.56;;;17.60;100.00
56876;BME280;42622;49.972;8.452;2023-04-23T09:08:39;99966.22;;;17.58;100.00
56876;BME280;42622;49.972;8.452;2023-04-23T09:11:06;99970.41;;;17.27;100.00
56876;BME280;42622;49.972;8.452;2023-04-23T09:13:34;99960.97;;;16.70;100.00
56876;BME280;42622;49.972;8.452;2023-04-23T09:16:00;99969.78;;;16.27;100.00
56876;BME280;42622;49.972;8.452;2023-04-23T09:18:26;99963.16;;;15.86;100.00
56876;BME280;42622;49.972;8.452;2023-04-23T09:20:52;99952.91;;;15.63;100.00
56876;BME280;42622;49.972;8.452;2023-04-23T09:23:22;99953.28;;;15.41;100.00
56876;BME280;42622;49.972;8.452;2023-04-23T09:25:47;99948.72;;;15.23;100.00
56876;BME280;42622;49.972;8.452;2023-04-23T09:28:13;99949.97;;;15.19;100.00
56876;BME280;42622;49.972;8.452;2023-04-23T09:30:44;99945.88;;;15.35;100.00
56876;BME280;42622;49.972;8.452;2023-04-23T09:33:11;99941.34;;;16.00;100.00
56876;BME280;42622;49.972;8.452;2023-04-23T09:35:38;99935.53;;;16.58;100.00
56876;BME280;42622;49.972;8.452;2023-04-23T09:38:08;99924.66;;;16.95;100.00
56876;BME280;42622;49.972;8.452;2023-04-23T09:40:35;99921.38;;;17.10;100.00
56876;BME280;42622;49.972;8.452;2023-04-23T09:43:03;99924.22;;;17.08;100.00
56876;BME280;42622;49.972;8.452;2023-04-23T09:45:31;99922.31;;;17.27;100.00
56876;BME280;42622;49.972;8.452;2023-04-23T09:47:59;99915.38;;;17.42;100.00
56876;BME280;42622;49.972;8.452;2023-04-23T09:50:37;99905.22;;;17.46;100.00
56876;BME280;42622;49.972;8.452;2023-04-23T09:53:08;99915.53;;;17.83;100.00
56876;BME280;42622;49.972;8.452;2023-04-23T09:55:38;99915.09;;;18.12;100.00
56876;BME280;42622;49.972;8.452;2023-04-23T09:58:11;99915.09;;;18.12;100.00
56876;BME280;42622;49.972;8.452;2023-04-23T10:00:42;99913.56;;;17.85;100.00
56876;BME280;42622;49.972;8.452;2023-04-23T10:03:08;99911.25;;;17.56;100.00
56876;BME280;42622;49.972;8.452;2023-04-23T10:05:40;99910.09;;;17.58;100.00
56876;BME280;42622;49.972;8.452;2023-04-23T10:08:07;99908.09;;;17.60;100.00
56876;BME280;42622;49.972;8.452;2023-04-23T10:10:34;99905.22;;;17.46;100.00
56876;BME280;42622;49.972;8.452;2023-04-23T10:13:01;99908.63;;;17.22;100.00
56876;BME280;42622;49.972;8.452;2023-04-23T10:15:27;99901.34;;;17.06;100.00
56876;BME280;42622;49.972;8.452;2023-04-23T10:17:54;99896.22;;;17.12;100.00
56876;BME280;42622;49.972;8.452;2023-04-23T10:20:24;99902.63;;;17.28;100.00
56876;BME280;42622;49.972;8.452;2023-04-23T10:22:54;99910.81;;;17.26;100.00
56876;BME280;42622;49.972;8.452;2023-04-23T10:25:23;99907.72;;;17.47;100.00
56876;BME280;42622;49.972;8.452;2023-04-23T10:27:54;99916.34;;;17.75;100.00
56876;BME280;42622;49.972;8.452;2023-04-23T10:30:21;99904.81;;;17.75;100.00
56876;BME280;42622;49.972;8.452;2023-04-23T10:32:49;99902.88;;;17.85;100.00
56876;BME280;42622;49.972;8.452;2023-04-23T10:35:15;99894.06;;;18.17;100.00
56876;BME280;42622;49.972;8.452;2023-04-23T10:37:43;99883.34;;;18.42;100.00
56876;BME280;42622;49.972;8.452;2023-04-23T10:40:37;99880.81;;;18.15;100.00
56876;BME280;42622;49.972;8.452;2023-04-23T10:43:02;99877.13;;;17.92;100.00
56876;BME280;42622;49.972;8.452;2023-04-23T10:45:29;99874.63;;;18.07;100.00
56876;BME280;42622;49.972;8.452;2023-04-23T10:47:57;99864.28;;;18.53;100.00
56876;BME280;42622;49.972;8.452;2023-04-23T10:50:27;99870.94;;;18.65;100.00
56876;BME280;42622;49.972;8.452;2023-04-23T10:52:56;99862.78;;;18.42;100.00
56876;BME280;42622;49.972;8.452;2023-04-23T10:55:25;99857.25;;;18.11;100.00
56876;BME280;42622;49.972;8.452;2023-04-23T10:58:04;99857.25;;;18.11;100.00
56876;BME280;42622;49.972;8.452;2023-04-23T11:03:36;99852.72;;;18.44;100.00
56876;BME280;42622;49.972;8.452;2023-04-23T11:06:12;99850.06;;;18.20;98.53
56876;BME280;42622;49.972;8.452;2023-04-23T11:08:51;99844.22;;;18.24;99.20
56876;BME280;42622;49.972;8.452;2023-04-23T11:11:46;99835.00;;;18.43;98.54
56876;BME280;42622;49.972;8.452;2023-04-23T11:14:12;99840.34;;;18.43;99.33
56876;BME280;42622;49.972;8.452;2023-04-23T11:16:38;99834.00;;;18.20;99.46
56876;BME280;42622;49.972;8.452;2023-04-23T11:19:09;99839.66;;;17.84;100.00
56876;BME280;42622;49.972;8.452;2023-04-23T11:22:02;99837.78;;;17.60;100.00
56876;BME280;42622;49.972;8.452;2023-04-23T11:24:40;99834.88;;;17.45;100.00
56876;BME280;42622;49.972;8.452;2023-04-23T11:27:13;99830.22;;;17.39;100.00
56876;BME280;42622;49.972;8.452;2023-04-23T11:29:43;99825.81;;;17.30;100.00
56876;BME280;42622;49.972;8.452;2023-04-23T11:32:11;99829.19;;;17.32;100.00
56876;BME280;42622;49.972;8.452;2023-04-23T11:34:42;99820.34;;;17.39;100.00
56876;BME280;42622;49.972;8.452;2023-04-23T11:37:14;99823.91;;;17.64;100.00
56876;BME280;42622;49.972;8.452;2023-04-23T11:39:43;99823.97;;;17.97;100.00
56876;BME280;42622;49.972;8.452;2023-04-23T11:42:16;99822.63;;;18.26;98.04
56876;BME280;42622;49.972;8.452;2023-04-23T11:44:45;99813.69;;;18.82;94.75
56876;BME280;42622;49.972;8.452;2023-04-23T11:47:14;99812.31;;;19.34;92.40
56876;BME280;42622;49.972;8.452;2023-04-23T11:49:43;99810.72;;;19.17;89.23
56876;BME280;42622;49.972;8.452;2023-04-23T11:52:10;99808.84;;;18.78;87.96
56876;BME280;42622;49.972;8.452;2023-04-23T11:54:40;99801.81;;;18.69;89.57
56876;BME280;42622;49.972;8.452;2023-04-23T11:57:06;99792.13;;;18.76;91.01
56876;BME280;42622;49.972;8.452;2023-04-23T11:59:32;99793.63;;;18.70;91.38
56876;BME280;42622;49.972;8.452;2023-04-23T12:01:59;99778.31;;;18.31;91.78
56876;BME280;42622;49.972;8.452;2023-04-23T12:04:28;99774.19;;;17.96;93.45
56876;BME280;42622;49.972;8.452;2023-04-23T12:06:57;99770.66;;;17.87;95.65
56876;BME280;42622;49.972;8.452;2023-04-23T12:09:27;99769.81;;;18.03;96.26
56876;BME280;42622;49.972;8.452;2023-04-23T12:11:56;99769.81;;;18.11;95.69
56876;BME280;42622;49.972;8.452;2023-04-23T12:14:28;99782.19;;;18.21;93.64
56876;BME280;42622;49.972;8.452;2023-04-23T12:16:56;99776.84;;;18.21;91.52
56876;BME280;42622;49.972;8.452;2023-04-23T12:19:29;99768.19;;;18.74;89.37
56876;BME280;42622;49.972;8.452;2023-04-23T12:22:02;99757.41;;;19.53;85.05
56876;BME280;42622;49.972;8.452;2023-04-23T12:24:47;99747.56;;;19.91;76.72
56876;BME280;42622;49.972;8.452;2023-04-23T12:27:18;99733.66;;;19.73;77.27
56876;BME280;42622;49.972;8.452;2023-04-23T12:29:47;99737.88;;;19.67;74.92
56876;BME280;42622;49.972;8.452;2023-04-23T12:32:14;99740.91;;;19.64;73.00
56876;BME280;42622;49.972;8.452;2023-04-23T12:34:54;99729.03;;;19.81;72.17
56876;BME280;42622;49.972;8.452;2023-04-23T12:37:29;99733.81;;;19.48;72.01
56876;BME280;42622;49.972;8.452;2023-04-23T12:39:56;99724.63;;;19.20;74.59
56876;BME280;42622;49.972;8.452;2023-04-23T12:42:24;99717.25;;;19.45;75.84
56876;BME280;42622;49.972;8.452;2023-04-23T12:44:50;99721.13;;;19.88;70.76
56876;BME280;42622;49.972;8.452;2023-04-23T12:47:16;99723.78;;;20.26;68.67
56876;BME280;42622;49.972;8.452;2023-04-23T12:49:44;99709.31;;;20.42;65.69